createdAt,value
2022-10-23T00:01:42.186Z,30.60
2022-10-23T00:04:45.238Z,33.50
2022-10-23T00:07:56.524Z,29.17
2022-10-23T00:10:59.719Z,33.93
2022-10-23T00:14:07.676Z,35.97
2022-10-23T00:17:12.320Z,31.23
2022-10-23T00:20:17.572Z,37.83
2022-10-23T00:23:20.781Z,36.50
2022-10-23T00:26:25.366Z,39.07
2022-10-23T00:29:28.495Z,33.67
2022-10-23T00:35:35.459Z,35.88
2022-10-23T00:38:38.807Z,34.38
2022-10-23T00:41:42.965Z,35.67
2022-10-23T00:44:45.853Z,36.40
2022-10-23T00:47:49.563Z,34.28
2022-10-23T00:50:52.413Z,31.77
2022-10-23T00:54:23.071Z,31.45
2022-10-23T00:57:23.290Z,33.47
2022-10-23T01:00:32.020Z,31.87
2022-10-23T01:03:35.076Z,31.62
2022-10-23T01:06:55.539Z,31.58
2022-10-23T01:10:13.016Z,29.60
2022-10-23T01:13:28.523Z,31.90
2022-10-23T01:16:50.977Z,27.83
2022-10-23T01:20:14.223Z,30.10
2022-10-23T01:23:56.023Z,28.55
2022-10-23T01:27:28.025Z,27.23
2022-10-23T01:30:33.862Z,29.07
2022-10-23T01:33:44.964Z,26.75
2022-10-23T01:36:51.371Z,26.27
2022-10-23T01:40:01.547Z,26.75
2022-10-23T01:43:13.384Z,27.80
2022-10-23T01:46:18.089Z,24.30
2022-10-23T01:49:22.855Z,25.60
2022-10-23T01:52:26.983Z,24.90
2022-10-23T01:55:31.716Z,25.42
2022-10-23T01:58:36.620Z,26.35
2022-10-23T02:01:44.256Z,24.80
2022-10-23T02:05:03.522Z,24.65
2022-10-23T02:08:06.968Z,25.23
2022-10-23T02:11:13.607Z,26.52
2022-10-23T02:14:18.891Z,24.10
2022-10-23T02:17:31.312Z,23.83
2022-10-23T02:20:48.495Z,23.77
2022-10-23T02:23:59.563Z,27.92
2022-10-23T02:27:09.104Z,26.05
2022-10-23T02:30:16.157Z,27.48
2022-10-23T02:33:22.071Z,29.17
2022-10-23T02:36:25.133Z,27.55
2022-10-23T02:39:30.325Z,25.77
2022-10-23T02:42:49.084Z,30.00
2022-10-23T02:46:16.472Z,28.90
2022-10-23T02:49:44.368Z,24.27
2022-10-23T02:52:50.712Z,23.25
2022-10-23T02:56:26.139Z,22.83
2022-10-23T02:59:50.612Z,23.70
2022-10-23T03:03:04.002Z,25.92
2022-10-23T03:06:07.922Z,26.67
2022-10-23T03:09:14.361Z,23.62
2022-10-23T03:12:16.811Z,24.40
2022-10-23T03:15:19.916Z,24.83
2022-10-23T03:18:24.062Z,23.05
2022-10-23T03:21:26.970Z,23.27
2022-10-23T03:24:30.211Z,22.62
2022-10-23T03:27:33.813Z,24.12
2022-10-23T03:30:38.103Z,26.73
2022-10-23T03:33:43.322Z,25.80
2022-10-23T03:36:46.446Z,26.93
2022-10-23T03:39:50.281Z,25.77
2022-10-23T03:42:53.136Z,26.35
2022-10-23T03:45:57.394Z,26.05
2022-10-23T03:49:00.272Z,24.33
2022-10-23T03:52:03.173Z,24.13
2022-10-23T03:55:06.411Z,26.10
2022-10-23T03:58:09.909Z,23.48
2022-10-23T04:01:12.419Z,25.88
2022-10-23T04:04:17.289Z,27.33
2022-10-23T04:07:21.879Z,26.13
2022-10-23T04:10:30.561Z,23.65
2022-10-23T04:13:32.970Z,26.45
2022-10-23T04:16:36.542Z,24.50
2022-10-23T04:19:39.176Z,30.23
2022-10-23T04:22:42.315Z,27.37
2022-10-23T04:28:58.732Z,26.40
2022-10-23T04:32:04.491Z,29.63
2022-10-23T04:35:08.603Z,31.27
2022-10-23T04:38:11.618Z,29.53
2022-10-23T04:41:15.054Z,25.02
2022-10-23T04:44:23.933Z,28.55
2022-10-23T04:47:26.844Z,25.65
2022-10-23T04:50:30.229Z,26.37
2022-10-23T04:53:41.553Z,24.87
2022-10-23T04:56:45.184Z,22.83
2022-10-23T04:59:49.317Z,22.08
2022-10-23T05:02:53.951Z,30.20
2022-10-23T05:05:57.543Z,30.60
2022-10-23T05:09:04.114Z,35.30
2022-10-23T05:12:07.167Z,42.40
2022-10-23T05:15:11.904Z,42.62
2022-10-23T05:18:25.849Z,48.38
2022-10-23T05:21:34.582Z,28.62
2022-10-23T05:24:40.721Z,22.87
2022-10-23T05:27:46.130Z,27.75
2022-10-23T05:30:50.068Z,24.60
2022-10-23T05:33:55.564Z,25.48
2022-10-23T05:37:07.862Z,14.68
2022-10-23T05:40:18.454Z,17.97
2022-10-23T05:43:23.365Z,18.37
2022-10-23T05:46:28.001Z,19.75
2022-10-23T05:49:32.005Z,28.62
2022-10-23T05:52:43.140Z,23.87
2022-10-23T05:55:49.108Z,22.57
2022-10-23T05:59:01.304Z,18.45
2022-10-23T06:02:07.035Z,25.15
2022-10-23T06:05:14.140Z,28.87
2022-10-23T06:08:18.720Z,38.70
2022-10-23T06:11:24.953Z,20.53
2022-10-23T06:14:29.535Z,30.48
2022-10-23T06:17:43.498Z,26.20
2022-10-23T06:20:53.426Z,32.03
2022-10-23T06:23:59.211Z,26.67
2022-10-23T06:27:11.113Z,21.03
2022-10-23T06:30:18.154Z,32.17
2022-10-23T06:33:22.645Z,21.65
2022-10-23T06:36:33.991Z,15.85
2022-10-23T06:39:40.493Z,28.30
2022-10-23T06:42:56.995Z,24.80
2022-10-23T06:46:10.127Z,28.45
2022-10-23T06:49:22.927Z,32.38
2022-10-23T06:52:45.960Z,30.42
2022-10-23T06:56:01.977Z,34.42
2022-10-23T06:59:09.993Z,52.97
2022-10-23T07:02:14.149Z,53.85
2022-10-23T07:05:19.504Z,87.72
2022-10-23T07:08:26.960Z,35.67
2022-10-23T07:11:37.958Z,63.90
2022-10-23T07:14:41.775Z,44.47
2022-10-23T07:17:44.681Z,35.30
2022-10-23T07:20:58.194Z,48.65
2022-10-23T07:24:04.035Z,49.25
2022-10-23T07:27:09.538Z,44.53
2022-10-23T07:30:19.626Z,70.77
2022-10-23T07:33:35.210Z,43.05
2022-10-23T07:36:40.978Z,72.37
2022-10-23T07:39:51.893Z,50.35
2022-10-23T07:43:02.971Z,59.03
2022-10-23T07:46:08.917Z,63.13
2022-10-23T07:49:13.151Z,47.58
2022-10-23T07:52:16.842Z,44.03
2022-10-23T07:55:25.972Z,43.05
2022-10-23T07:58:33.511Z,40.65
2022-10-23T08:01:39.484Z,48.63
2022-10-23T08:04:44.102Z,45.72
2022-10-23T08:07:55.970Z,55.92
2022-10-23T08:10:59.315Z,36.50
2022-10-23T08:14:08.575Z,62.92
2022-10-23T08:17:33.159Z,37.80
2022-10-23T08:20:46.894Z,42.17
2022-10-23T08:24:00.096Z,40.67
2022-10-23T08:27:10.166Z,43.45
2022-10-23T08:30:17.144Z,47.05
2022-10-23T08:33:22.986Z,46.83
2022-10-23T08:36:29.524Z,41.95
2022-10-23T08:39:39.424Z,43.35
2022-10-23T08:42:47.176Z,41.37
2022-10-23T08:46:02.646Z,46.92
2022-10-23T08:49:29.964Z,36.53
2022-10-23T08:52:55.151Z,29.75
2022-10-23T08:56:28.136Z,30.02
2022-10-23T08:59:44.103Z,29.60
2022-10-23T09:02:50.944Z,32.08
2022-10-23T09:06:20.178Z,34.70
2022-10-23T09:09:33.123Z,35.22
2022-10-23T09:12:39.391Z,39.45
2022-10-23T09:15:53.120Z,41.88
2022-10-23T09:18:58.876Z,40.67
2022-10-23T09:22:04.046Z,40.17
2022-10-23T09:25:15.128Z,45.42
2022-10-23T09:28:27.559Z,44.45
2022-10-23T09:31:33.100Z,39.33
2022-10-23T09:34:40.146Z,36.90
2022-10-23T09:37:54.185Z,24.67
2022-10-23T09:41:04.210Z,22.73
2022-10-23T09:44:09.006Z,20.17
2022-10-23T09:47:20.820Z,20.52
2022-10-23T09:50:26.139Z,19.10
2022-10-23T09:53:35.927Z,17.33
2022-10-23T09:56:43.081Z,18.17
2022-10-23T09:59:55.984Z,18.35
2022-10-23T10:03:06.363Z,20.00
2022-10-23T10:06:37.907Z,19.62
2022-10-23T10:09:47.965Z,20.80
2022-10-23T10:12:59.458Z,22.83
2022-10-23T10:16:16.998Z,22.80
2022-10-23T10:19:48.952Z,21.37
2022-10-23T10:23:27.078Z,20.52
2022-10-23T10:26:57.968Z,21.37
2022-10-23T10:30:21.270Z,23.90
2022-10-23T10:33:41.017Z,24.70
2022-10-23T10:37:03.026Z,27.08
2022-10-23T10:40:16.929Z,26.23
2022-10-23T10:43:44.439Z,24.83
2022-10-23T10:46:55.225Z,20.40
2022-10-23T10:50:15.993Z,17.20
2022-10-23T10:53:58.876Z,16.62
2022-10-23T10:57:40.962Z,16.95
2022-10-23T11:00:54.016Z,18.33
2022-10-23T11:04:31.955Z,16.35
2022-10-23T11:07:44.488Z,18.90
2022-10-23T11:14:37.322Z,18.95
2022-10-23T11:22:13.978Z,16.83
2022-10-23T11:25:47.986Z,15.35
2022-10-23T11:29:18.976Z,15.70
2022-10-23T11:36:07.331Z,15.63
2022-10-23T11:39:19.989Z,15.20
2022-10-23T11:42:46.888Z,13.85
2022-10-23T11:45:57.889Z,13.75
2022-10-23T11:52:27.360Z,16.80
2022-10-23T11:55:32.957Z,15.70
2022-10-23T11:59:02.973Z,16.30
2022-10-23T12:02:39.347Z,17.10
2022-10-23T12:05:45.899Z,14.50
2022-10-23T12:08:54.969Z,13.80
2022-10-23T12:12:09.580Z,13.18
2022-10-23T12:15:19.359Z,15.35
2022-10-23T12:18:24.940Z,13.77
2022-10-23T12:21:42.044Z,15.02
2022-10-23T12:24:53.061Z,14.97
2022-10-23T12:28:05.987Z,15.73
2022-10-23T12:31:20.000Z,16.02
2022-10-23T12:34:26.416Z,17.48
2022-10-23T12:37:50.195Z,20.02
2022-10-23T12:41:07.974Z,19.87
2022-10-23T12:44:18.989Z,22.00
2022-10-23T12:47:22.327Z,22.27
2022-10-23T12:50:30.119Z,21.27
2022-10-23T12:53:35.114Z,26.00
2022-10-23T12:56:44.126Z,21.97
2022-10-23T12:59:47.441Z,19.17
2022-10-23T13:03:00.944Z,20.98
2022-10-23T13:06:06.975Z,16.65
2022-10-23T13:09:25.116Z,14.90
2022-10-23T13:12:37.177Z,14.50
2022-10-23T13:15:48.110Z,15.02
2022-10-23T13:18:54.951Z,14.77
2022-10-23T13:22:14.963Z,13.57
2022-10-23T13:25:29.090Z,14.80
2022-10-23T13:28:47.921Z,12.13
2022-10-23T13:31:56.881Z,12.27
2022-10-23T13:35:17.311Z,11.50
2022-10-23T13:38:36.371Z,10.80
2022-10-23T13:41:44.958Z,11.63
2022-10-23T13:44:48.362Z,11.13
2022-10-23T13:47:52.929Z,11.10
2022-10-23T13:51:16.549Z,10.93
2022-10-23T13:54:25.136Z,10.68
2022-10-23T13:57:28.904Z,11.95
2022-10-23T14:00:34.217Z,10.07
2022-10-23T14:03:45.107Z,10.73
2022-10-23T14:06:49.020Z,11.12
2022-10-23T14:09:52.826Z,10.10
2022-10-23T14:12:58.193Z,10.00
2022-10-23T14:16:02.982Z,10.60
2022-10-23T14:19:23.579Z,11.27
2022-10-23T14:22:34.039Z,12.20
2022-10-23T14:25:44.985Z,12.57
2022-10-23T14:28:59.571Z,17.40
2022-10-23T14:32:06.556Z,18.23
2022-10-23T14:35:25.882Z,19.67
2022-10-23T14:38:41.006Z,14.68
2022-10-23T14:41:57.504Z,17.85
2022-10-23T14:45:09.133Z,13.32
2022-10-23T14:48:14.204Z,22.27
2022-10-23T14:51:27.936Z,102.50
2022-10-23T14:54:35.075Z,31.83
2022-10-23T14:57:41.073Z,31.35
2022-10-23T15:01:11.134Z,20.40
2022-10-23T15:04:29.971Z,14.07
2022-10-23T15:07:35.232Z,143.45
2022-10-23T15:10:40.069Z,240.75
2022-10-23T15:13:55.485Z,187.55
2022-10-23T15:16:59.115Z,91.70
2022-10-23T15:20:18.038Z,55.23
2022-10-23T15:23:24.397Z,32.40
2022-10-23T15:26:36.943Z,27.33
2022-10-23T15:29:53.287Z,25.15
2022-10-23T15:33:02.134Z,19.02
2022-10-23T15:36:13.265Z,19.33
2022-10-23T15:39:20.337Z,18.15
2022-10-23T15:42:25.149Z,14.68
2022-10-23T15:45:34.145Z,13.02
2022-10-23T15:48:39.954Z,13.98
2022-10-23T15:51:46.998Z,187.33
2022-10-23T15:55:00.120Z,91.75
2022-10-23T15:58:05.634Z,22.92
2022-10-23T16:01:15.283Z,20.80
2022-10-23T16:04:21.420Z,10.32
2022-10-23T16:07:30.236Z,8.13
2022-10-23T16:10:43.953Z,6.45
2022-10-23T16:13:50.001Z,6.45
2022-10-23T16:17:01.041Z,5.72
2022-10-23T16:20:06.957Z,7.25
2022-10-23T16:23:15.923Z,6.37
2022-10-23T16:26:25.109Z,9.52
2022-10-23T16:29:31.933Z,7.37
2022-10-23T16:32:38.166Z,11.50
2022-10-23T16:35:55.328Z,11.35
2022-10-23T16:38:59.631Z,11.23
2022-10-23T16:42:20.226Z,10.38
2022-10-23T16:45:28.115Z,7.72
2022-10-23T16:48:36.348Z,8.07
2022-10-23T16:51:46.967Z,7.72
2022-10-23T16:54:51.372Z,7.77
2022-10-23T16:58:02.125Z,9.00
2022-10-23T17:01:24.073Z,7.55
2022-10-23T17:04:39.033Z,8.50
2022-10-23T17:07:46.092Z,8.07
2022-10-23T17:11:12.762Z,9.73
2022-10-23T17:14:21.356Z,8.85
2022-10-23T17:17:28.927Z,9.10
2022-10-23T17:20:35.117Z,7.05
2022-10-23T17:23:38.955Z,8.10
2022-10-23T17:26:50.082Z,11.17
2022-10-23T17:30:04.075Z,10.35
2022-10-23T17:33:08.946Z,8.27
2022-10-23T17:36:16.201Z,7.40
2022-10-23T17:39:27.000Z,8.15
2022-10-23T17:42:35.987Z,7.53
2022-10-23T17:45:42.984Z,9.88
2022-10-23T17:52:05.372Z,11.80
2022-10-23T17:55:13.404Z,8.25
2022-10-23T17:58:19.137Z,8.03
2022-10-23T18:01:25.842Z,7.85
2022-10-23T18:04:37.239Z,8.70
2022-10-23T18:07:42.429Z,7.60
2022-10-23T18:10:47.920Z,9.15
2022-10-23T18:14:05.382Z,10.23
2022-10-23T18:17:10.938Z,9.98
2022-10-23T18:20:23.304Z,8.70
2022-10-23T18:23:35.327Z,11.27
2022-10-23T18:26:41.055Z,11.20
2022-10-23T18:29:44.955Z,9.80
2022-10-23T18:33:01.951Z,11.05
2022-10-23T18:36:26.146Z,11.75
2022-10-23T18:39:31.924Z,14.63
2022-10-23T18:42:36.974Z,12.90
2022-10-23T18:45:42.573Z,14.90
2022-10-23T18:48:52.157Z,13.90
2022-10-23T18:52:09.274Z,14.57
2022-10-23T18:55:19.997Z,16.10
2022-10-23T18:58:24.481Z,13.85
2022-10-23T19:01:40.966Z,15.47
2022-10-23T19:04:46.052Z,14.60
2022-10-23T19:08:06.866Z,14.85
2022-10-23T19:11:27.930Z,14.57
2022-10-23T19:14:40.478Z,15.40
2022-10-23T19:17:53.928Z,15.07
2022-10-23T19:21:00.411Z,14.48
2022-10-23T19:24:10.944Z,14.87
2022-10-23T19:27:15.137Z,15.90
2022-10-23T19:30:22.695Z,14.15
2022-10-23T19:33:41.525Z,12.43
2022-10-23T19:36:47.757Z,13.43
2022-10-23T19:39:52.944Z,13.45
2022-10-23T19:42:56.386Z,14.50
2022-10-23T19:46:09.351Z,13.90
2022-10-23T19:49:24.507Z,11.97
2022-10-23T19:52:27.832Z,14.35
2022-10-23T19:55:31.747Z,13.52
2022-10-23T19:58:35.980Z,18.17
2022-10-23T20:01:40.686Z,13.88
2022-10-23T20:05:02.010Z,16.00
2022-10-23T20:08:05.949Z,13.75
2022-10-23T20:11:17.908Z,14.93
2022-10-23T20:14:26.053Z,13.85
2022-10-23T20:17:32.194Z,13.33
2022-10-23T20:20:41.987Z,13.63
2022-10-23T20:23:57.147Z,16.58
2022-10-23T20:27:02.501Z,19.15
2022-10-23T20:30:08.953Z,19.92
2022-10-23T20:33:12.355Z,20.27
2022-10-23T20:36:27.038Z,16.87
2022-10-23T20:39:35.766Z,23.10
2022-10-23T20:42:41.991Z,17.17
2022-10-23T20:45:48.891Z,15.98
2022-10-23T20:48:54.091Z,16.10
2022-10-23T20:51:58.212Z,18.63
2022-10-23T20:55:01.065Z,15.82
2022-10-23T20:58:07.406Z,17.95
2022-10-23T21:01:17.087Z,17.98
2022-10-23T21:04:25.208Z,21.47
2022-10-23T21:07:28.754Z,18.37
2022-10-23T21:10:31.262Z,16.85
2022-10-23T21:13:34.502Z,16.58
2022-10-23T21:16:44.920Z,14.80
2022-10-23T21:19:48.009Z,17.63
2022-10-23T21:22:57.603Z,22.43
2022-10-23T21:26:06.187Z,30.30
2022-10-23T21:29:18.663Z,26.85
2022-10-23T21:32:23.014Z,19.33
2022-10-23T21:35:27.862Z,15.03
2022-10-23T21:38:32.950Z,17.20
2022-10-23T21:41:35.872Z,19.12
2022-10-23T21:44:41.896Z,19.35
2022-10-23T21:47:45.045Z,19.12
2022-10-23T21:53:54.563Z,14.43
2022-10-23T21:56:59.360Z,15.52
2022-10-23T22:00:06.125Z,18.05
2022-10-23T22:03:16.246Z,17.37
2022-10-23T22:06:25.755Z,14.03
2022-10-23T22:09:28.835Z,19.97
2022-10-23T22:12:32.075Z,16.02
2022-10-23T22:15:34.655Z,17.40
2022-10-23T22:18:38.178Z,15.90
2022-10-23T22:21:41.327Z,26.97
2022-10-23T22:24:45.108Z,24.17
2022-10-23T22:27:48.578Z,15.80
2022-10-23T22:30:52.317Z,18.67
2022-10-23T22:33:57.289Z,19.05
2022-10-23T22:37:00.742Z,20.53
2022-10-23T22:40:04.675Z,22.57
2022-10-23T22:43:07.519Z,20.30
2022-10-23T22:46:14.276Z,18.98
2022-10-23T22:49:17.080Z,17.23
2022-10-23T22:52:19.993Z,25.60
2022-10-23T22:55:23.466Z,22.33
2022-10-23T22:58:29.072Z,17.58
2022-10-23T23:01:35.820Z,18.35
2022-10-23T23:04:39.370Z,22.83
2022-10-23T23:07:42.563Z,19.20
2022-10-23T23:10:54.269Z,19.17
2022-10-23T23:13:57.221Z,23.15
2022-10-23T23:16:59.948Z,22.20
2022-10-23T23:20:03.796Z,28.67
2022-10-23T23:23:06.934Z,24.97
2022-10-23T23:26:12.041Z,25.60
2022-10-23T23:29:15.308Z,23.35
2022-10-23T23:32:18.507Z,24.50
2022-10-23T23:35:21.130Z,22.25
2022-10-23T23:38:24.268Z,21.77
2022-10-23T23:41:28.526Z,24.97
2022-10-23T23:44:31.857Z,22.20
2022-10-23T23:47:34.457Z,23.27
2022-10-23T23:50:37.777Z,26.10
2022-10-23T23:53:40.940Z,25.80
2022-10-23T23:56:43.665Z,26.37
2022-10-23T23:59:46.122Z,24.35
